Aviation Digital Data Service (ADDS)

Output produced by TAFs form (2350 UTC 18 July 2018)
found at http://www.aviationweather.gov/adds/tafs/
 
RJSA 182321Z 06002KT 3000 BCFG BR SCT001 BKN002 BKN004 20/20 Q1012 RMK 4ST001 5ST002 7ST004 A2990
TAF RJSA 182309Z 1900/2006 03005KT 1500 BR FEW001 BKN003 BKN005 
     BECMG 1901/1903 9999 NSW FEW010 SCT030 
     TEMPO 1909/1912 3000 BR FEW002 BKN005 BKN010 
     TEMPO 1912/1921 1500 BR FEW001 BKN003 BKN005 
     BECMG 1918/1921 24008KT